Dades meteomassalio
Diari Summary for Noviembre 14, 2017 Units:  Metric    English   Both
« Previous Day
Next Day »
Diari Semanal Mensual Anual Personalitzat
  Maxima: Minima: Mijana:
Temperatura: 13.3 °C -2.2 °C 6.1 °C
Rosada: -0.2 °C -10.7 °C -3.3 °C
Humitat: 64 % 35 % 52 %
Velocitat del vent: 38.9 km/h 0.0 km/h 18.5 km/h
Racha vent: 38.9 km/h - -
Vent:- - WNW
Pressio: 1024.9 hPa 1021.9 hPa -
Pluja: 0.0 mm    
Historical Graphs
 
 
Tabular Data for Noviembre 14, 2017
Time Temperature Dew Point Pressure Wind Wind Speed Wind Gust Humidity Rainfall Rate (Hourly) solar Conditions
00:01 6.1 °C -0.2 °C 1022.6 hPa NW 29.0 km/h 29.0 km/h 64 % 0.0 mm 0.0 W/m2 CLR
00:06 6.1 °C -0.2 °C 1022.6 hPa NW 38.9 km/h 38.9 km/h 64 % 0.0 mm 0.0 W/m2 CLR
00:11 6.1 °C -0.2 °C 1022.6 hPa WNW 24.1 km/h 24.1 km/h 64 % 0.0 mm 0.0 W/m2 CLR
00:16 6.1 °C -0.2 °C 1022.6 hPa NNW 25.7 km/h 25.7 km/h 64 % 0.0 mm 0.0 W/m2 CLR
00:21 5.6 °C -0.7 °C 1022.6 hPa WNW 20.4 km/h 20.4 km/h 64 % 0.0 mm 0.0 W/m2 CLR
00:26 5.6 °C -0.7 °C 1022.6 hPa WNW 31.5 km/h 31.5 km/h 64 % 0.0 mm 0.0 W/m2 CLR
00:32 5.6 °C -0.7 °C 1022.2 hPa NW 25.9 km/h 25.9 km/h 64 % 0.0 mm 0.0 W/m2 CLR
00:37 5.6 °C -0.7 °C 1022.2 hPa NNW 35.2 km/h 35.2 km/h 64 % 0.0 mm 0.0 W/m2 CLR
00:42 5.6 °C -0.7 °C 1022.2 hPa NW 20.4 km/h 20.4 km/h 64 % 0.0 mm 0.0 W/m2 CLR
00:47 5.6 °C -0.7 °C 1022.2 hPa NW 24.1 km/h 24.1 km/h 64 % 0.0 mm 0.0 W/m2 CLR
00:52 5.6 °C -0.7 °C 1022.2 hPa NW 31.5 km/h 31.5 km/h 64 % 0.0 mm 0.0 W/m2 CLR
00:57 5.6 °C -0.7 °C 1021.9 hPa NW 31.5 km/h 31.5 km/h 64 % 0.0 mm 0.0 W/m2 CLR
01:02 5.6 °C -0.7 °C 1022.2 hPa NW 24.1 km/h 24.1 km/h 64 % 0.0 mm 0.0 W/m2 CLR
01:04 5.6 °C -0.7 °C 1021.9 hPa NW 29.6 km/h 29.6 km/h 64 % 0.0 mm 0.0 W/m2 CLR
01:09 5.6 °C -0.7 °C 1022.2 hPa NW 19.3 km/h 19.3 km/h 64 % 0.0 mm 0.0 W/m2 CLR
01:14 5.6 °C -0.7 °C 1022.2 hPa WNW 24.1 km/h 24.1 km/h 64 % 0.0 mm 0.0 W/m2 CLR
01:19 5.6 °C -0.7 °C 1022.2 hPa WNW 31.5 km/h 31.5 km/h 64 % 0.0 mm 0.0 W/m2 CLR
01:24 5.6 °C -0.7 °C 1022.2 hPa NW 29.6 km/h 29.6 km/h 64 % 0.0 mm 0.0 W/m2 CLR
01:29 5.6 °C -0.7 °C 1022.2 hPa WNW 25.9 km/h 25.9 km/h 64 % 0.0 mm 0.0 W/m2 CLR
01:34 5.6 °C -0.7 °C 1022.2 hPa NNW 24.1 km/h 24.1 km/h 64 % 0.0 mm 0.0 W/m2 CLR
01:39 5.6 °C -0.7 °C 1022.2 hPa WNW 31.5 km/h 31.5 km/h 64 % 0.0 mm 0.0 W/m2 CLR
01:44 5.6 °C -0.7 °C 1022.2 hPa WNW 24.1 km/h 24.1 km/h 64 % 0.0 mm 0.0 W/m2 CLR
01:49 5.6 °C -0.7 °C 1022.6 hPa NW 18.5 km/h 18.5 km/h 64 % 0.0 mm 0.0 W/m2 CLR
01:54 5.6 °C -0.7 °C 1022.6 hPa NW 19.3 km/h 19.3 km/h 64 % 0.0 mm 0.0 W/m2 CLR
01:59 5.6 °C -0.7 °C 1022.6 hPa NNW 27.8 km/h 27.8 km/h 64 % 0.0 mm 0.0 W/m2 CLR
02:04 5.6 °C -0.7 °C 1022.6 hPa WNW 31.5 km/h 31.5 km/h 64 % 0.0 mm 0.0 W/m2 CLR
02:09 5.6 °C -0.7 °C 1022.6 hPa NW 29.6 km/h 29.6 km/h 64 % 0.0 mm 0.0 W/m2 CLR
02:14 5.6 °C -0.7 °C 1022.6 hPa NW 24.1 km/h 24.1 km/h 64 % 0.0 mm 0.0 W/m2 CLR
02:19 5.6 °C -0.7 °C 1022.6 hPa NW 19.3 km/h 19.3 km/h 64 % 0.0 mm 0.0 W/m2 CLR
02:24 5.6 °C -0.7 °C 1022.6 hPa NW 29.0 km/h 29.0 km/h 64 % 0.0 mm 0.0 W/m2 CLR
02:35 5.6 °C -0.7 °C 1022.6 hPa WNW 32.2 km/h 32.2 km/h 64 % 0.0 mm 0.0 W/m2 CLR
02:40 5.6 °C -0.7 °C 1022.6 hPa WNW 25.7 km/h 25.7 km/h 64 % 0.0 mm 0.0 W/m2 CLR
02:45 5.6 °C -0.7 °C 1022.6 hPa NW 25.9 km/h 25.9 km/h 64 % 0.0 mm 0.0 W/m2 CLR
02:50 5.6 °C -0.7 °C 1022.2 hPa NW 25.9 km/h 25.9 km/h 64 % 0.0 mm 0.0 W/m2 CLR
02:55 5.6 °C -0.7 °C 1022.2 hPa NW 25.9 km/h 25.9 km/h 64 % 0.0 mm 0.0 W/m2 CLR
03:00 5.6 °C -0.7 °C 1022.6 hPa WNW 31.5 km/h 31.5 km/h 64 % 0.0 mm 0.0 W/m2 CLR
03:05 5.0 °C -1.3 °C 1022.2 hPa NW 25.9 km/h 25.9 km/h 64 % 0.0 mm 0.0 W/m2 CLR
03:10 5.0 °C -1.4 °C 1022.2 hPa NW 30.6 km/h 30.6 km/h 63 % 0.0 mm 0.0 W/m2 CLR
03:15 5.6 °C -0.9 °C 1022.2 hPa NW 24.1 km/h 24.1 km/h 63 % 0.0 mm 0.0 W/m2 CLR
03:20 5.6 °C -0.9 °C 1022.2 hPa NW 29.6 km/h 29.6 km/h 63 % 0.0 mm 0.0 W/m2 CLR
03:25 5.6 °C -0.9 °C 1021.9 hPa NW 27.8 km/h 27.8 km/h 63 % 0.0 mm 0.0 W/m2 CLR
03:31 5.6 °C -0.9 °C 1021.9 hPa NW 20.4 km/h 20.4 km/h 63 % 0.0 mm 0.0 W/m2 CLR
03:36 5.6 °C -0.9 °C 1021.9 hPa WNW 25.9 km/h 25.9 km/h 63 % 0.0 mm 0.0 W/m2 CLR
03:41 5.0 °C -1.4 °C 1021.9 hPa WNW 31.5 km/h 31.5 km/h 63 % 0.0 mm 0.0 W/m2 CLR
03:46 5.0 °C -1.4 °C 1021.9 hPa NW 22.2 km/h 22.2 km/h 63 % 0.0 mm 0.0 W/m2 CLR
03:51 5.0 °C -1.4 °C 1022.2 hPa WNW 29.6 km/h 29.6 km/h 63 % 0.0 mm 0.0 W/m2 CLR
03:56 5.0 °C -1.4 °C 1021.9 hPa NW 16.7 km/h 16.7 km/h 63 % 0.0 mm 0.0 W/m2 CLR
04:01 5.0 °C -1.4 °C 1022.2 hPa WNW 22.2 km/h 22.2 km/h 63 % 0.0 mm 0.0 W/m2 CLR
04:06 5.0 °C -1.4 °C 1021.9 hPa NW 25.9 km/h 25.9 km/h 63 % 0.0 mm 0.0 W/m2 CLR
04:11 5.0 °C -1.7 °C 1021.9 hPa NW 25.9 km/h 25.9 km/h 62 % 0.0 mm 0.0 W/m2 CLR
04:16 5.0 °C -1.7 °C 1021.9 hPa NW 31.5 km/h 31.5 km/h 62 % 0.0 mm 0.0 W/m2 CLR
04:21 5.0 °C -1.7 °C 1021.9 hPa NW 31.5 km/h 31.5 km/h 62 % 0.0 mm 0.0 W/m2 CLR
04:22 5.0 °C -1.7 °C 1021.9 hPa NW 24.1 km/h 24.1 km/h 62 % 0.0 mm 0.0 W/m2 CLR
04:27 5.0 °C -1.7 °C 1022.2 hPa WNW 29.6 km/h 29.6 km/h 62 % 0.0 mm 0.0 W/m2 CLR
04:32 5.0 °C -1.7 °C 1021.9 hPa WNW 25.7 km/h 25.7 km/h 62 % 0.0 mm 0.0 W/m2 CLR
04:37 5.0 °C -1.7 °C 1021.9 hPa WNW 25.9 km/h 25.9 km/h 62 % 0.0 mm 0.0 W/m2 CLR
04:42 5.0 °C -1.7 °C 1021.9 hPa NW 25.9 km/h 25.9 km/h 62 % 0.0 mm 0.0 W/m2 CLR
04:47 5.0 °C -1.7 °C 1021.9 hPa NW 25.7 km/h 25.7 km/h 62 % 0.0 mm 0.0 W/m2 CLR
04:53 5.0 °C -1.7 °C 1021.9 hPa WNW 31.5 km/h 31.5 km/h 62 % 0.0 mm 0.0 W/m2 CLR
04:58 5.0 °C -1.7 °C 1021.9 hPa NW 27.8 km/h 27.8 km/h 62 % 0.0 mm 0.0 W/m2 CLR
05:03 5.0 °C -1.7 °C 1021.9 hPa NW 31.5 km/h 31.5 km/h 62 % 0.0 mm 0.0 W/m2 CLR
05:08 5.0 °C -1.7 °C 1021.9 hPa WNW 33.3 km/h 33.3 km/h 62 % 0.0 mm 0.0 W/m2 CLR
05:13 5.0 °C -1.7 °C 1021.9 hPa NW 24.1 km/h 24.1 km/h 62 % 0.0 mm 0.0 W/m2 CLR
05:18 5.0 °C -1.7 °C 1021.9 hPa NW 24.1 km/h 24.1 km/h 62 % 0.0 mm 0.0 W/m2 CLR
05:23 5.0 °C -1.7 °C 1022.2 hPa NW 27.8 km/h 27.8 km/h 62 % 0.0 mm 0.0 W/m2 CLR
05:28 5.0 °C -1.7 °C 1022.2 hPa WNW 22.2 km/h 22.2 km/h 62 % 0.0 mm 0.0 W/m2 CLR
05:33 5.0 °C -1.7 °C 1022.2 hPa WNW 19.3 km/h 19.3 km/h 62 % 0.0 mm 0.0 W/m2 CLR
05:38 5.0 °C -1.7 °C 1022.2 hPa WNW 16.7 km/h 16.7 km/h 62 % 0.0 mm 0.0 W/m2 CLR
05:43 4.4 °C -2.2 °C 1022.2 hPa NW 16.1 km/h 16.1 km/h 62 % 0.0 mm 0.0 W/m2 CLR
05:48 4.4 °C -2.2 °C 1022.2 hPa NW 18.5 km/h 18.5 km/h 62 % 0.0 mm 0.0 W/m2 CLR
05:53 4.4 °C -2.2 °C 1022.6 hPa WNW 18.5 km/h 18.5 km/h 62 % 0.0 mm 0.0 W/m2 CLR
05:58 4.4 °C -2.2 °C 1022.6 hPa NW 20.4 km/h 20.4 km/h 62 % 0.0 mm 0.0 W/m2 CLR
06:03 4.4 °C -2.4 °C 1022.2 hPa NW 18.5 km/h 18.5 km/h 61 % 0.0 mm 0.0 W/m2 CLR
06:08 4.4 °C -2.4 °C 1022.6 hPa WNW 22.2 km/h 22.2 km/h 61 % 0.0 mm 0.0 W/m2 CLR
06:13 4.4 °C -2.4 °C 1022.6 hPa WNW 18.5 km/h 18.5 km/h 61 % 0.0 mm 0.0 W/m2 CLR
06:18 4.4 °C -2.4 °C 1022.6 hPa WNW 18.5 km/h 18.5 km/h 61 % 0.0 mm 0.0 W/m2 CLR
06:23 4.4 °C -2.4 °C 1022.6 hPa West 18.5 km/h 18.5 km/h 61 % 0.0 mm 0.0 W/m2 CLR
06:28 4.4 °C -2.4 °C 1022.6 hPa WNW 13.0 km/h 13.0 km/h 61 % 0.0 mm 0.0 W/m2 CLR
06:33 4.4 °C -2.2 °C 1022.6 hPa WNW 11.3 km/h 11.3 km/h 62 % 0.0 mm 0.0 W/m2 CLR
06:38 3.9 °C -2.7 °C 1022.6 hPa WNW 12.9 km/h 12.9 km/h 62 % 0.0 mm 0.0 W/m2 CLR
06:43 3.9 °C -2.7 °C 1022.6 hPa WNW 17.7 km/h 17.7 km/h 62 % 0.0 mm 0.0 W/m2 CLR
06:48 3.3 °C -3.3 °C 1022.6 hPa WNW 22.2 km/h 22.2 km/h 62 % 0.0 mm 0.0 W/m2 CLR
06:53 3.9 °C -2.7 °C 1022.6 hPa WNW 25.9 km/h 25.9 km/h 62 % 0.0 mm 0.0 W/m2 CLR
06:58 4.4 °C -2.4 °C 1022.6 hPa NW 20.4 km/h 20.4 km/h 61 % 0.0 mm 0.0 W/m2 CLR
07:03 4.4 °C -2.4 °C 1022.6 hPa WNW 24.1 km/h 24.1 km/h 61 % 0.0 mm 0.0 W/m2 CLR
07:08 3.9 °C -2.9 °C 1022.6 hPa WNW 22.2 km/h 22.2 km/h 61 % 0.0 mm 0.0 W/m2 CLR
07:13 3.9 °C -2.9 °C 1022.6 hPa WNW 16.7 km/h 16.7 km/h 61 % 0.0 mm 0.0 W/m2 CLR
07:18 4.4 °C -2.4 °C 1022.9 hPa WNW 18.5 km/h 18.5 km/h 61 % 0.0 mm 0.0 W/m2 CLR
07:19 4.4 °C -2.2 °C 1022.9 hPa West 27.8 km/h 27.8 km/h 62 % 0.0 mm 0.0 W/m2 CLR
07:24 4.4 °C -2.2 °C 1022.9 hPa NW 16.7 km/h 16.7 km/h 62 % 0.0 mm 0.0 W/m2 CLR
07:29 4.4 °C -2.2 °C 1022.9 hPa West 9.7 km/h 9.7 km/h 62 % 0.0 mm 0.0 W/m2 CLR
07:34 4.4 °C -2.2 °C 1022.9 hPa WSW 12.9 km/h 12.9 km/h 62 % 0.0 mm 0.0 W/m2 CLR
07:39 4.4 °C -2.0 °C 1022.9 hPa West 18.5 km/h 18.5 km/h 63 % 0.0 mm 0.0 W/m2 OVC
07:44 5.0 °C -1.4 °C 1022.9 hPa WNW 16.7 km/h 16.7 km/h 63 % 0.0 mm 0.0 W/m2 OVC
07:49 4.4 °C -2.0 °C 1022.9 hPa West 18.5 km/h 18.5 km/h 63 % 0.0 mm 7.0 W/m2 OVC
07:54 4.4 °C -2.0 °C 1022.9 hPa West 14.8 km/h 14.8 km/h 63 % 0.0 mm 9.0 W/m2 OVC
07:59 3.9 °C -2.7 °C 1023.2 hPa West 16.7 km/h 16.7 km/h 62 % 0.0 mm 11.0 W/m2 OVC
08:04 4.4 °C -2.2 °C 1023.2 hPa WNW 16.7 km/h 16.7 km/h 62 % 0.0 mm 12.0 W/m2 OVC
08:09 4.4 °C -2.2 °C 1023.2 hPa West 14.8 km/h 14.8 km/h 62 % 0.0 mm 14.0 W/m2 OVC
08:14 4.4 °C -2.2 °C 1023.2 hPa West 11.1 km/h 11.1 km/h 62 % 0.0 mm 19.0 W/m2 OVC
08:19 4.4 °C -2.2 °C 1023.6 hPa West 13.0 km/h 13.0 km/h 62 % 0.0 mm 25.0 W/m2 OVC
08:24 5.0 °C -1.9 °C 1023.2 hPa WSW 9.3 km/h 9.3 km/h 61 % 0.0 mm 37.0 W/m2 OVC
08:29 5.0 °C -2.1 °C 1023.2 hPa West 9.3 km/h 9.3 km/h 60 % 0.0 mm 46.0 W/m2 OVC
08:34 5.0 °C -2.1 °C 1023.2 hPa West 11.1 km/h 11.1 km/h 60 % 0.0 mm 60.0 W/m2 OVC
08:39 5.0 °C -2.3 °C 1023.2 hPa WSW 9.3 km/h 9.3 km/h 59 % 0.0 mm 72.0 W/m2 OVC
08:44 5.0 °C -2.6 °C 1023.2 hPa West 18.5 km/h 18.5 km/h 58 % 0.0 mm 84.0 W/m2 OVC
08:49 5.0 °C -2.6 °C 1023.6 hPa WNW 27.8 km/h 27.8 km/h 58 % 0.0 mm 97.0 W/m2 BKN
08:54 5.6 °C -2.3 °C 1023.2 hPa NW 24.1 km/h 24.1 km/h 57 % 0.0 mm 116.0 W/m2 SCT
08:59 5.6 °C -2.6 °C 1023.2 hPa WNW 22.2 km/h 22.2 km/h 56 % 0.0 mm 121.0 W/m2 CLR
09:04 6.1 °C -2.0 °C 1023.6 hPa NNW 18.5 km/h 18.5 km/h 56 % 0.0 mm 144.0 W/m2 CLR
09:09 6.1 °C -2.0 °C 1023.6 hPa WNW 18.5 km/h 18.5 km/h 56 % 0.0 mm 158.0 W/m2 CLR
09:14 6.1 °C -2.3 °C 1023.6 hPa NW 18.5 km/h 18.5 km/h 55 % 0.0 mm 114.0 W/m2 CLR
09:19 6.7 °C -1.7 °C 1023.6 hPa NW 18.5 km/h 18.5 km/h 55 % 0.0 mm 151.0 W/m2 CLR
09:24 6.7 °C -2.0 °C 1023.6 hPa WNW 20.4 km/h 20.4 km/h 54 % 0.0 mm 114.0 W/m2 CLR
09:29 6.7 °C -1.7 °C 1023.9 hPa North 25.7 km/h 25.7 km/h 55 % 0.0 mm 172.0 W/m2 CLR
09:34 7.2 °C -1.5 °C 1023.6 hPa WNW 25.9 km/h 25.9 km/h 54 % 0.0 mm 236.0 W/m2 CLR
09:39 7.2 °C -1.5 °C 1023.6 hPa WNW 27.8 km/h 27.8 km/h 54 % 0.0 mm 253.0 W/m2 CLR
09:44 7.2 °C -1.7 °C 1023.9 hPa WNW 22.2 km/h 22.2 km/h 53 % 0.0 mm 265.0 W/m2 CLR
09:49 7.2 °C -1.7 °C 1023.9 hPa NW 29.6 km/h 29.6 km/h 53 % 0.0 mm 276.0 W/m2 CLR
09:54 7.8 °C -1.2 °C 1023.9 hPa NW 31.5 km/h 31.5 km/h 53 % 0.0 mm 288.0 W/m2 CLR
09:59 7.8 °C -1.5 °C 1023.9 hPa WNW 29.6 km/h 29.6 km/h 52 % 0.0 mm 302.0 W/m2 CLR
10:04 7.8 °C -1.5 °C 1023.9 hPa NW 27.8 km/h 27.8 km/h 52 % 0.0 mm 313.0 W/m2 CLR
10:09 8.3 °C -0.9 °C 1023.9 hPa NW 27.8 km/h 27.8 km/h 52 % 0.0 mm 323.0 W/m2 CLR
10:14 8.3 °C -0.9 °C 1023.9 hPa NW 22.2 km/h 22.2 km/h 52 % 0.0 mm 334.0 W/m2 CLR
10:19 8.3 °C -1.2 °C 1023.9 hPa NW 16.7 km/h 16.7 km/h 51 % 0.0 mm 348.0 W/m2 CLR
10:24 8.3 °C -1.2 °C 1023.9 hPa NW 18.5 km/h 18.5 km/h 51 % 0.0 mm 357.0 W/m2 CLR
10:29 8.3 °C -1.2 °C 1023.9 hPa NW 22.5 km/h 22.5 km/h 51 % 0.0 mm 367.0 W/m2 CLR
10:34 8.9 °C -1.0 °C 1023.9 hPa ESE 32.2 km/h 32.2 km/h 50 % 0.0 mm 374.0 W/m2 CLR
10:39 8.9 °C -1.0 °C 1023.9 hPa NW 29.6 km/h 29.6 km/h 50 % 0.0 mm 387.0 W/m2 CLR
10:44 8.9 °C -1.0 °C 1023.9 hPa NNW 20.4 km/h 20.4 km/h 50 % 0.0 mm 394.0 W/m2 CLR
10:49 8.9 °C -1.0 °C 1023.9 hPa NW 27.8 km/h 27.8 km/h 50 % 0.0 mm 404.0 W/m2 CLR
10:54 9.4 °C -0.7 °C 1023.9 hPa NW 27.8 km/h 27.8 km/h 49 % 0.0 mm 411.0 W/m2 CLR
10:59 9.4 °C -0.7 °C 1023.9 hPa NW 35.2 km/h 35.2 km/h 49 % 0.0 mm 420.0 W/m2 CLR
11:04 9.4 °C -0.7 °C 1023.6 hPa WNW 25.9 km/h 25.9 km/h 49 % 0.0 mm 429.0 W/m2 CLR
11:09 9.4 °C -0.7 °C 1023.6 hPa NNW 22.2 km/h 22.2 km/h 49 % 0.0 mm 434.0 W/m2 CLR
11:14 9.4 °C -1.1 °C 1023.9 hPa NNW 29.6 km/h 29.6 km/h 48 % 0.0 mm 441.0 W/m2 CLR
11:19 9.4 °C -1.3 °C 1023.9 hPa NW 33.3 km/h 33.3 km/h 47 % 0.0 mm 448.0 W/m2 CLR
11:24 10.0 °C -0.5 °C 1023.6 hPa NW 20.4 km/h 20.4 km/h 48 % 0.0 mm 457.0 W/m2 CLR
11:29 10.0 °C -0.8 °C 1023.9 hPa NNW 31.5 km/h 31.5 km/h 47 % 0.0 mm 462.0 W/m2 CLR
11:34 10.6 °C -0.3 °C 1023.6 hPa NNW 24.1 km/h 24.1 km/h 47 % 0.0 mm 468.0 W/m2 CLR
11:39 10.6 °C -0.6 °C 1023.6 hPa North 33.3 km/h 33.3 km/h 46 % 0.0 mm 473.0 W/m2 CLR
11:44 10.6 °C -0.9 °C 1023.6 hPa North 29.0 km/h 29.0 km/h 45 % 0.0 mm 478.0 W/m2 CLR
11:49 10.6 °C -0.6 °C 1023.6 hPa NNW 25.9 km/h 25.9 km/h 46 % 0.0 mm 482.0 W/m2 CLR
11:54 10.6 °C -1.2 °C 1023.6 hPa NNW 30.6 km/h 30.6 km/h 44 % 0.0 mm 485.0 W/m2 CLR
12:00 10.6 °C -1.2 °C 1023.6 hPa NW 19.3 km/h 19.3 km/h 44 % 0.0 mm 489.0 W/m2 CLR
12:05 11.1 °C -0.7 °C 1023.6 hPa North 29.6 km/h 29.6 km/h 44 % 0.0 mm 496.0 W/m2 CLR
12:10 11.1 °C -1.0 °C 1023.6 hPa North 25.7 km/h 25.7 km/h 43 % 0.0 mm 497.0 W/m2 CLR
12:15 11.1 °C -1.0 °C 1023.6 hPa NW 31.5 km/h 31.5 km/h 43 % 0.0 mm 501.0 W/m2 CLR
12:20 11.1 °C -1.3 °C 1023.6 hPa North 27.8 km/h 27.8 km/h 42 % 0.0 mm 503.0 W/m2 CLR
12:25 11.1 °C -1.3 °C 1023.2 hPa NNW 31.5 km/h 31.5 km/h 42 % 0.0 mm 503.0 W/m2 CLR
12:30 11.1 °C -1.3 °C 1023.2 hPa NNW 29.6 km/h 29.6 km/h 42 % 0.0 mm 504.0 W/m2 CLR
12:35 11.7 °C -0.8 °C 1023.2 hPa North 31.5 km/h 31.5 km/h 42 % 0.0 mm 506.0 W/m2 CLR
12:40 11.7 °C -0.8 °C 1023.2 hPa NNW 33.3 km/h 33.3 km/h 42 % 0.0 mm 508.0 W/m2 CLR
12:45 12.2 °C -0.7 °C 1023.2 hPa NW 25.9 km/h 25.9 km/h 41 % 0.0 mm 510.0 W/m2 CLR
12:50 12.2 °C -0.7 °C 1023.2 hPa NNW 22.2 km/h 22.2 km/h 41 % 0.0 mm 506.0 W/m2 CLR
12:55 11.7 °C -1.2 °C 1023.2 hPa NNW 27.4 km/h 27.4 km/h 41 % 0.0 mm 506.0 W/m2 CLR
13:00 11.7 °C -1.2 °C 1023.2 hPa NW 19.3 km/h 19.3 km/h 41 % 0.0 mm 504.0 W/m2 CLR
13:05 11.7 °C -1.5 °C 1023.2 hPa NNW 27.8 km/h 27.8 km/h 40 % 0.0 mm 504.0 W/m2 CLR
13:10 12.2 °C -0.7 °C 1023.2 hPa NW 22.5 km/h 22.5 km/h 41 % 0.0 mm 503.0 W/m2 CLR
13:15 11.7 °C -1.2 °C 1023.2 hPa North 19.3 km/h 19.3 km/h 41 % 0.0 mm 501.0 W/m2 CLR
13:20 12.8 °C -0.5 °C 1023.2 hPa NNW 25.9 km/h 25.9 km/h 40 % 0.0 mm 497.0 W/m2 CLR
13:25 12.2 °C -1.0 °C 1022.9 hPa NW 22.2 km/h 22.2 km/h 40 % 0.0 mm 494.0 W/m2 CLR
13:30 12.2 °C -1.3 °C 1022.9 hPa NNW 18.5 km/h 18.5 km/h 39 % 0.0 mm 492.0 W/m2 CLR
13:35 12.2 °C -1.0 °C 1022.9 hPa NW 17.7 km/h 17.7 km/h 40 % 0.0 mm 489.0 W/m2 CLR
13:40 12.8 °C -0.8 °C 1022.9 hPa NNW 25.9 km/h 25.9 km/h 39 % 0.0 mm 485.0 W/m2 CLR
13:41 12.8 °C -0.8 °C 1022.9 hPa NNW 22.5 km/h 22.5 km/h 39 % 0.0 mm 483.0 W/m2 CLR
13:46 12.2 °C -1.3 °C 1022.6 hPa NW 22.2 km/h 22.2 km/h 39 % 0.0 mm 480.0 W/m2 CLR
13:51 12.8 °C -1.2 °C 1022.6 hPa NNW 31.5 km/h 31.5 km/h 38 % 0.0 mm 475.0 W/m2 CLR
13:56 12.8 °C -1.2 °C 1022.6 hPa NNW 33.3 km/h 33.3 km/h 38 % 0.0 mm 471.0 W/m2 CLR
14:01 12.8 °C -1.2 °C 1022.6 hPa NW 31.5 km/h 31.5 km/h 38 % 0.0 mm 462.0 W/m2 CLR
14:06 12.8 °C -0.8 °C 1022.2 hPa NNW 22.5 km/h 22.5 km/h 39 % 0.0 mm 457.0 W/m2 CLR
14:11 12.8 °C -1.2 °C 1022.2 hPa NNW 25.9 km/h 25.9 km/h 38 % 0.0 mm 452.0 W/m2 CLR
14:16 13.3 °C -0.7 °C 1022.2 hPa NW 18.5 km/h 18.5 km/h 38 % 0.0 mm 446.0 W/m2 CLR
14:21 13.3 °C -0.7 °C 1022.2 hPa NW 18.5 km/h 18.5 km/h 38 % 0.0 mm 439.0 W/m2 CLR
14:26 13.3 °C -1.1 °C 1022.2 hPa NW 29.6 km/h 29.6 km/h 37 % 0.0 mm 431.0 W/m2 CLR
14:31 13.3 °C -1.1 °C 1022.2 hPa NNW 22.2 km/h 22.2 km/h 37 % 0.0 mm 424.0 W/m2 CLR
14:36 13.3 °C -1.1 °C 1022.2 hPa NNW 22.2 km/h 22.2 km/h 37 % 0.0 mm 415.0 W/m2 CLR
14:41 13.3 °C -1.4 °C 1022.2 hPa NW 25.9 km/h 25.9 km/h 36 % 0.0 mm 406.0 W/m2 CLR
14:46 13.3 °C -1.4 °C 1021.9 hPa NW 25.9 km/h 25.9 km/h 36 % 0.0 mm 397.0 W/m2 CLR
14:51 13.3 °C -1.4 °C 1021.9 hPa NNW 18.5 km/h 18.5 km/h 36 % 0.0 mm 388.0 W/m2 CLR
14:56 13.3 °C -1.4 °C 1021.9 hPa NW 25.9 km/h 25.9 km/h 36 % 0.0 mm 378.0 W/m2 CLR
15:01 13.3 °C -1.4 °C 1021.9 hPa North 31.5 km/h 31.5 km/h 36 % 0.0 mm 367.0 W/m2 CLR
15:06 13.3 °C -1.4 °C 1021.9 hPa North 29.0 km/h 29.0 km/h 36 % 0.0 mm 357.0 W/m2 CLR
15:11 13.3 °C -1.4 °C 1021.9 hPa North 31.5 km/h 31.5 km/h 36 % 0.0 mm 346.0 W/m2 CLR
15:16 13.3 °C -1.4 °C 1021.9 hPa NNW 27.8 km/h 27.8 km/h 36 % 0.0 mm 338.0 W/m2 CLR
15:21 13.3 °C -1.4 °C 1021.9 hPa NW 22.2 km/h 22.2 km/h 36 % 0.0 mm 327.0 W/m2 CLR
15:26 13.3 °C -1.8 °C 1021.9 hPa NW 17.7 km/h 17.7 km/h 35 % 0.0 mm 313.0 W/m2 CLR
15:31 13.3 °C -1.8 °C 1021.9 hPa North 31.5 km/h 31.5 km/h 35 % 0.0 mm 302.0 W/m2 CLR
15:36 13.3 °C -1.8 °C 1021.9 hPa NW 25.9 km/h 25.9 km/h 35 % 0.0 mm 292.0 W/m2 CLR
15:41 13.3 °C -1.8 °C 1021.9 hPa NW 24.1 km/h 24.1 km/h 35 % 0.0 mm 279.0 W/m2 CLR
15:46 13.3 °C -1.8 °C 1021.9 hPa WNW 25.7 km/h 25.7 km/h 35 % 0.0 mm 264.0 W/m2 CLR
15:51 13.3 °C -1.4 °C 1021.9 hPa North 22.5 km/h 22.5 km/h 36 % 0.0 mm 250.0 W/m2 CLR
15:56 13.3 °C -1.4 °C 1021.9 hPa NW 22.5 km/h 22.5 km/h 36 % 0.0 mm 239.0 W/m2 CLR
16:01 12.8 °C -1.9 °C 1021.9 hPa NW 20.9 km/h 20.9 km/h 36 % 0.0 mm 221.0 W/m2 CLR
16:06 12.8 °C -2.3 °C 1021.9 hPa NW 27.8 km/h 27.8 km/h 35 % 0.0 mm 207.0 W/m2 CLR
16:11 12.8 °C -1.9 °C 1021.9 hPa NNW 22.2 km/h 22.2 km/h 36 % 0.0 mm 192.0 W/m2 CLR
16:16 12.8 °C -2.3 °C 1021.9 hPa North 27.8 km/h 27.8 km/h 35 % 0.0 mm 176.0 W/m2 CLR
16:21 12.2 °C -2.4 °C 1021.9 hPa NNW 31.5 km/h 31.5 km/h 36 % 0.0 mm 160.0 W/m2 CLR
16:26 12.2 °C -2.4 °C 1021.9 hPa North 25.9 km/h 25.9 km/h 36 % 0.0 mm 146.0 W/m2 CLR
16:31 12.2 °C -2.4 °C 1021.9 hPa NW 18.5 km/h 18.5 km/h 36 % 0.0 mm 128.0 W/m2 CLR
16:36 12.2 °C -2.4 °C 1021.9 hPa NNW 18.5 km/h 18.5 km/h 36 % 0.0 mm 113.0 W/m2 CLR
16:41 11.7 °C -2.9 °C 1022.2 hPa NW 14.8 km/h 14.8 km/h 36 % 0.0 mm 100.0 W/m2 CLR
16:46 11.7 °C -2.9 °C 1022.2 hPa NW 18.5 km/h 18.5 km/h 36 % 0.0 mm 86.0 W/m2 CLR
16:51 11.7 °C -2.6 °C 1022.2 hPa NNW 20.4 km/h 20.4 km/h 37 % 0.0 mm 70.0 W/m2 FEW
16:56 11.7 °C -2.6 °C 1022.2 hPa NNW 17.7 km/h 17.7 km/h 37 % 0.0 mm 56.0 W/m2 SCT
17:01 11.7 °C -2.6 °C 1022.2 hPa NNW 13.0 km/h 13.0 km/h 37 % 0.0 mm 49.0 W/m2 SCT
17:06 11.7 °C -2.6 °C 1022.2 hPa NNW 16.7 km/h 16.7 km/h 37 % 0.0 mm 39.0 W/m2 BKN
17:11 11.1 °C -2.7 °C 1022.2 hPa NW 16.7 km/h 16.7 km/h 38 % 0.0 mm 26.0 W/m2 BKN
17:16 11.1 °C -2.7 °C 1022.2 hPa NW 18.5 km/h 18.5 km/h 38 % 0.0 mm 19.0 W/m2 BKN
17:21 11.1 °C -2.7 °C 1022.2 hPa NW 16.7 km/h 16.7 km/h 38 % 0.0 mm 14.0 W/m2 BKN
17:26 10.6 °C -3.2 °C 1022.2 hPa NW 11.1 km/h 11.1 km/h 38 % 0.0 mm 12.0 W/m2 BKN
17:31 10.6 °C -2.8 °C 1022.6 hPa NW 7.4 km/h 7.4 km/h 39 % 0.0 mm 11.0 W/m2 BKN
17:36 10.0 °C -3.3 °C 1022.6 hPa WNW 5.6 km/h 5.6 km/h 39 % 0.0 mm 7.0 W/m2 BKN
17:41 9.4 °C -3.8 °C 1022.6 hPa NW 9.7 km/h 9.7 km/h 39 % 0.0 mm 5.0 W/m2 OVC
17:46 8.3 °C -4.5 °C 1022.6 hPa NW 8.0 km/h 8.0 km/h 40 % 0.0 mm 0.0 W/m2 OVC
17:51 7.8 °C -5.0 °C 1022.6 hPa NW 9.3 km/h 9.3 km/h 40 % 0.0 mm 0.0 W/m2 OVC
17:56 7.8 °C -5.0 °C 1022.6 hPa NW 9.3 km/h 9.3 km/h 40 % 0.0 mm 0.0 W/m2 CLR
18:01 7.2 °C -5.2 °C 1022.6 hPa NW 11.1 km/h 11.1 km/h 41 % 0.0 mm 0.0 W/m2 CLR
18:06 6.7 °C -5.7 °C 1022.6 hPa NW 13.0 km/h 13.0 km/h 41 % 0.0 mm 0.0 W/m2 CLR
18:11 6.1 °C -6.2 °C 1022.9 hPa WNW 5.6 km/h 5.6 km/h 41 % 0.0 mm 0.0 W/m2 CLR
18:16 6.1 °C -6.2 °C 1022.9 hPa Calm     41 % 0.0 mm 0.0 W/m2 CLR
18:21 5.6 °C -6.7 °C 1023.2 hPa Calm     41 % 0.0 mm 0.0 W/m2 CLR
18:26 5.0 °C -6.9 °C 1022.9 hPa Calm     42 % 0.0 mm 0.0 W/m2 CLR
18:31 5.0 °C -6.3 °C 1023.2 hPa Calm     44 % 0.0 mm 0.0 W/m2 CLR
18:36 4.4 °C -6.8 °C 1023.2 hPa Calm     44 % 0.0 mm 0.0 W/m2 CLR
18:38 4.4 °C -6.8 °C 1023.2 hPa Calm     44 % 0.0 mm 0.0 W/m2 CLR
18:43 4.4 °C -6.5 °C 1023.2 hPa Calm     45 % 0.0 mm 0.0 W/m2 CLR
18:48 3.9 °C -7.3 °C 1023.2 hPa Calm     44 % 0.0 mm 0.0 W/m2 CLR
18:53 3.9 °C -7.3 °C 1023.2 hPa Calm     44 % 0.0 mm 0.0 W/m2 CLR
18:58 3.3 °C -7.5 °C 1023.2 hPa Calm     45 % 0.0 mm 0.0 W/m2 CLR
19:03 2.8 °C -7.4 °C 1023.2 hPa Calm     47 % 0.0 mm 0.0 W/m2 CLR
19:08 2.8 °C -7.2 °C 1023.6 hPa Calm     48 % 0.0 mm 0.0 W/m2 CLR
19:10 2.8 °C -7.2 °C 1023.6 hPa Calm     48 % 0.0 mm 0.0 W/m2 CLR
19:15 2.2 °C -7.7 °C 1023.6 hPa Calm     48 % 0.0 mm 0.0 W/m2 CLR
19:20 2.2 °C -7.4 °C 1023.6 hPa Calm     49 % 0.0 mm 0.0 W/m2 CLR
19:25 2.2 °C -7.2 °C 1023.6 hPa Calm     50 % 0.0 mm 0.0 W/m2 CLR
19:30 2.2 °C -7.4 °C 1023.6 hPa Calm     49 % 0.0 mm 0.0 W/m2 CLR
19:35 1.7 °C -8.2 °C 1023.6 hPa WNW 13.0 km/h 13.0 km/h 48 % 0.0 mm 0.0 W/m2 CLR
19:40 1.7 °C -8.4 °C 1023.6 hPa WNW 11.1 km/h 11.1 km/h 47 % 0.0 mm 0.0 W/m2 CLR
19:45 1.7 °C -8.7 °C 1023.6 hPa WNW 7.4 km/h 7.4 km/h 46 % 0.0 mm 0.0 W/m2 CLR
19:50 1.7 °C -8.7 °C 1023.6 hPa Calm     46 % 0.0 mm 0.0 W/m2 CLR
19:55 1.1 °C -8.9 °C 1023.6 hPa Calm     47 % 0.0 mm 0.0 W/m2 CLR
20:00 1.1 °C -8.4 °C 1023.9 hPa WSW 5.6 km/h 5.6 km/h 49 % 0.0 mm 0.0 W/m2 CLR
20:05 1.1 °C -8.2 °C 1023.6 hPa WNW 5.6 km/h 5.6 km/h 50 % 0.0 mm 0.0 W/m2 CLR
20:10 1.1 °C -8.2 °C 1023.9 hPa Calm     50 % 0.0 mm 0.0 W/m2 CLR
20:15 1.1 °C -7.9 °C 1023.9 hPa Calm     51 % 0.0 mm 0.0 W/m2 CLR
20:20 0.6 °C -8.2 °C 1023.9 hPa Calm     52 % 0.0 mm 0.0 W/m2 CLR
20:25 0.6 °C -7.9 °C 1023.9 hPa Calm     53 % 0.0 mm 0.0 W/m2 CLR
20:30 0.6 °C -8.2 °C 1023.9 hPa WNW 5.6 km/h 5.6 km/h 52 % 0.0 mm 0.0 W/m2 CLR
20:31 0.6 °C -8.2 °C 1023.9 hPa WNW 5.6 km/h 5.6 km/h 52 % 0.0 mm 0.0 W/m2 CLR
20:36 0.0 °C -8.9 °C 1023.9 hPa Calm     51 % 0.0 mm 0.0 W/m2 CLR
20:41 0.0 °C -8.4 °C 1023.9 hPa Calm     53 % 0.0 mm 0.0 W/m2 CLR
20:46 0.0 °C -8.2 °C 1024.3 hPa West 7.4 km/h 7.4 km/h 54 % 0.0 mm 0.0 W/m2 CLR
20:51 0.0 °C -8.2 °C 1024.3 hPa WNW 7.4 km/h 7.4 km/h 54 % 0.0 mm 0.0 W/m2 CLR
20:56 -0.6 °C -8.7 °C 1024.3 hPa West 7.4 km/h 7.4 km/h 54 % 0.0 mm 0.0 W/m2 CLR
20:59 -0.6 °C -8.7 °C 1024.3 hPa West 7.4 km/h 7.4 km/h 54 % 0.0 mm 0.0 W/m2 CLR
21:04 -0.6 °C -9.0 °C 1024.3 hPa WSW 9.3 km/h 9.3 km/h 53 % 0.0 mm 0.0 W/m2 CLR
21:09 -0.6 °C -8.7 °C 1024.3 hPa WNW 9.3 km/h 9.3 km/h 54 % 0.0 mm 0.0 W/m2 CLR
21:14 -0.6 °C -8.5 °C 1024.3 hPa WNW 13.0 km/h 13.0 km/h 55 % 0.0 mm 0.0 W/m2 CLR
21:19 -0.6 °C -9.0 °C 1024.6 hPa West 16.7 km/h 16.7 km/h 53 % 0.0 mm 0.0 W/m2 CLR
21:24 -0.6 °C -9.2 °C 1024.6 hPa West 7.4 km/h 7.4 km/h 52 % 0.0 mm 0.0 W/m2 CLR
21:29 -0.6 °C -9.4 °C 1024.6 hPa Calm     51 % 0.0 mm 0.0 W/m2 CLR
21:34 -0.6 °C -9.0 °C 1024.6 hPa Calm     53 % 0.0 mm 0.0 W/m2 CLR
21:39 -0.6 °C -8.5 °C 1024.6 hPa WNW 11.1 km/h 11.1 km/h 55 % 0.0 mm 0.0 W/m2 CLR
21:44 -0.6 °C -9.2 °C 1024.6 hPa West 11.3 km/h 11.3 km/h 52 % 0.0 mm 0.0 W/m2 CLR
21:49 -0.6 °C -9.4 °C 1024.6 hPa West 13.0 km/h 13.0 km/h 51 % 0.0 mm 0.0 W/m2 CLR
21:54 -0.6 °C -9.4 °C 1024.6 hPa Calm     51 % 0.0 mm 0.0 W/m2 CLR
21:59 -0.6 °C -9.2 °C 1024.6 hPa Calm     52 % 0.0 mm 0.0 W/m2 CLR
22:04 -1.1 °C -9.3 °C 1024.6 hPa Calm     54 % 0.0 mm 0.0 W/m2 CLR
22:09 -1.1 °C -9.0 °C 1024.6 hPa Calm     55 % 0.0 mm 0.0 W/m2 CLR
22:14 -1.1 °C -8.6 °C 1024.9 hPa Calm     57 % 0.0 mm 0.0 W/m2 CLR
22:20 -1.1 °C -8.8 °C 1024.9 hPa Calm     56 % 0.0 mm 0.0 W/m2 CLR
22:25 -1.1 °C -8.8 °C 1024.6 hPa WNW 14.8 km/h 14.8 km/h 56 % 0.0 mm 0.0 W/m2 CLR
22:30 -1.1 °C -9.7 °C 1024.9 hPa WNW 13.0 km/h 13.0 km/h 52 % 0.0 mm 0.0 W/m2 CLR
22:35 -1.1 °C -10.0 °C 1024.9 hPa West 7.4 km/h 7.4 km/h 51 % 0.0 mm 0.0 W/m2 CLR
22:40 -1.7 °C -10.7 °C 1024.9 hPa Calm     50 % 0.0 mm 0.0 W/m2 CLR
22:45 -1.7 °C -9.8 °C 1024.9 hPa West 9.3 km/h 9.3 km/h 54 % 0.0 mm 0.0 W/m2 CLR
22:50 -1.7 °C -9.1 °C 1024.9 hPa West 11.1 km/h 11.1 km/h 57 % 0.0 mm 0.0 W/m2 CLR
22:55 -1.7 °C -9.3 °C 1024.9 hPa Calm     56 % 0.0 mm 0.0 W/m2 CLR
23:00 -1.7 °C -9.1 °C 1024.9 hPa Calm     57 % 0.0 mm 0.0 W/m2 CLR
23:05 -1.7 °C -8.8 °C 1024.9 hPa Calm     58 % 0.0 mm 0.0 W/m2 CLR
23:10 -1.7 °C -8.7 °C 1024.9 hPa Calm     59 % 0.0 mm 0.0 W/m2 CLR
23:15 -2.2 °C -8.9 °C 1024.9 hPa West 5.6 km/h 5.6 km/h 60 % 0.0 mm 0.0 W/m2 CLR
23:20 -2.2 °C -8.7 °C 1024.9 hPa WSW 7.4 km/h 7.4 km/h 61 % 0.0 mm 0.0 W/m2 CLR
23:25 -2.2 °C -8.7 °C 1024.9 hPa West 8.0 km/h 8.0 km/h 61 % 0.0 mm 0.0 W/m2 CLR
23:30 -2.2 °C -8.3 °C 1024.9 hPa WNW 13.0 km/h 13.0 km/h 63 % 0.0 mm 0.0 W/m2 CLR
23:35 -2.2 °C -9.2 °C 1024.9 hPa Calm     59 % 0.0 mm 0.0 W/m2 CLR
23:40 -2.2 °C -9.2 °C 1024.9 hPa WSW 9.7 km/h 9.7 km/h 59 % 0.0 mm 0.0 W/m2 CLR
23:45 -2.2 °C -8.9 °C 1024.9 hPa WSW 7.4 km/h 7.4 km/h 60 % 0.0 mm 0.0 W/m2 CLR
23:50 -2.2 °C -8.9 °C 1024.9 hPa Calm     60 % 0.0 mm 0.0 W/m2 CLR
23:55 -2.2 °C -8.7 °C 1024.9 hPa Calm     61 % 0.0 mm 0.0 W/m2 CLR
Lo Temps de Massalio
Compliments of Weather Underground - 1.25 mb